createdAt,value
2022-09-06T00:00:26.780Z,0.90
2022-09-06T00:02:54.359Z,1.00
2022-09-06T00:05:22.286Z,0.90
2022-09-06T00:07:49.767Z,1.00
2022-09-06T00:10:17.398Z,0.98
2022-09-06T00:12:44.923Z,0.80
2022-09-06T00:15:12.374Z,0.98
2022-09-06T00:17:39.850Z,0.98
2022-09-06T00:20:11.112Z,0.70
2022-09-06T00:22:39.037Z,0.98
2022-09-06T00:25:07.435Z,0.70
2022-09-06T00:27:35.414Z,0.70
2022-09-06T00:30:04.911Z,0.70
2022-09-06T00:32:33.401Z,1.00
2022-09-06T00:35:00.872Z,0.90
2022-09-06T00:37:28.433Z,0.70
2022-09-06T00:39:55.912Z,1.00
2022-09-06T00:42:23.538Z,0.70
2022-09-06T00:44:51.467Z,0.90
2022-09-06T00:47:20.382Z,0.75
2022-09-06T00:49:53.075Z,0.73
2022-09-06T00:52:21.207Z,0.70
2022-09-06T00:54:50.632Z,0.75
2022-09-06T00:57:19.028Z,0.77
2022-09-06T00:59:48.400Z,0.70
2022-09-06T01:02:16.203Z,0.90
2022-09-06T01:04:45.516Z,0.88
2022-09-06T01:07:33.542Z,0.90
2022-09-06T01:10:06.925Z,0.80
2022-09-06T01:12:52.721Z,1.00
2022-09-06T01:15:29.636Z,0.68
2022-09-06T01:18:09.475Z,0.60
2022-09-06T01:20:45.833Z,0.75
2022-09-06T01:24:07.186Z,0.80
2022-09-06T01:26:37.749Z,0.80
2022-09-06T01:29:16.473Z,0.63
2022-09-06T01:31:57.051Z,0.80
2022-09-06T01:34:32.084Z,0.60
2022-09-06T01:37:10.266Z,0.70
2022-09-06T01:39:40.266Z,0.75
2022-09-06T01:42:22.579Z,0.80
2022-09-06T01:45:01.583Z,1.10
2022-09-06T01:47:48.067Z,1.02
2022-09-06T01:50:45.397Z,0.85
2022-09-06T01:53:28.184Z,0.80
2022-09-06T01:56:04.468Z,0.77
2022-09-06T01:58:58.282Z,0.80
2022-09-06T02:01:36.857Z,1.17
2022-09-06T02:04:18.631Z,1.23
2022-09-06T02:06:54.982Z,1.20
2022-09-06T02:09:26.406Z,1.30
2022-09-06T02:11:58.410Z,0.70
2022-09-06T02:14:38.458Z,0.95
2022-09-06T02:17:10.204Z,1.00
2022-09-06T02:19:49.610Z,0.90
2022-09-06T02:22:21.978Z,1.17
2022-09-06T02:24:53.944Z,1.60
2022-09-06T02:27:21.569Z,1.00
2022-09-06T02:29:49.280Z,1.00
2022-09-06T02:32:25.305Z,0.90
2022-09-06T02:34:55.595Z,0.85
2022-09-06T02:37:27.422Z,2.22
2022-09-06T02:39:58.016Z,1.17
2022-09-06T02:42:26.644Z,1.30
2022-09-06T02:44:54.070Z,0.98
2022-09-06T02:47:21.581Z,0.90
2022-09-06T02:49:49.539Z,1.08
2022-09-06T02:52:17.751Z,0.90
2022-09-06T02:54:45.541Z,0.90
2022-09-06T02:57:13.160Z,1.10
2022-09-06T02:59:40.572Z,1.10
2022-09-06T03:02:08.160Z,1.13
2022-09-06T03:04:35.613Z,1.00
2022-09-06T03:07:03.151Z,1.20
2022-09-06T03:09:30.624Z,1.20
2022-09-06T03:11:58.098Z,1.13
2022-09-06T03:14:25.651Z,1.35
2022-09-06T03:16:53.245Z,1.30
2022-09-06T03:19:21.907Z,1.10
2022-09-06T03:21:49.404Z,1.75
2022-09-06T03:24:16.904Z,1.60
2022-09-06T03:26:44.709Z,1.40
2022-09-06T03:29:12.127Z,1.52
2022-09-06T03:31:39.698Z,1.45
2022-09-06T03:34:10.986Z,1.50
2022-09-06T03:36:38.828Z,2.33
2022-09-06T03:39:07.352Z,2.22
2022-09-06T03:41:34.993Z,1.92
2022-09-06T03:44:02.694Z,1.48
2022-09-06T03:46:31.116Z,1.70
2022-09-06T03:48:59.404Z,1.50
2022-09-06T03:51:26.890Z,1.88
2022-09-06T03:53:54.542Z,1.60
2022-09-06T03:56:23.204Z,2.00
2022-09-06T03:58:50.679Z,1.67
2022-09-06T04:01:18.169Z,1.70
2022-09-06T04:03:45.843Z,1.60
2022-09-06T04:06:13.752Z,2.15
2022-09-06T04:08:41.274Z,1.50
2022-09-06T04:11:09.026Z,1.60
2022-09-06T04:13:37.771Z,1.70
2022-09-06T04:16:06.027Z,1.88
2022-09-06T04:18:33.981Z,2.03
2022-09-06T04:21:01.501Z,1.50
2022-09-06T04:23:29.876Z,1.50
2022-09-06T04:25:59.323Z,1.73
2022-09-06T04:28:27.740Z,1.65
2022-09-06T04:31:04.234Z,1.40
2022-09-06T04:33:34.047Z,1.80
2022-09-06T04:36:02.915Z,1.92
2022-09-06T04:38:34.984Z,2.50
2022-09-06T04:41:02.702Z,2.38
2022-09-06T04:43:30.194Z,2.13
2022-09-06T04:46:04.289Z,1.98
2022-09-06T04:48:31.841Z,2.28
2022-09-06T04:50:59.302Z,1.65
2022-09-06T04:53:26.877Z,1.80
2022-09-06T04:55:57.718Z,1.38
2022-09-06T04:58:25.777Z,1.83
2022-09-06T05:00:53.577Z,1.90
2022-09-06T05:03:21.108Z,1.50
2022-09-06T05:05:48.652Z,1.70
2022-09-06T05:08:16.276Z,1.65
2022-09-06T05:10:43.840Z,1.75
2022-09-06T05:13:11.263Z,1.83
2022-09-06T05:15:38.816Z,2.17
2022-09-06T05:18:07.063Z,1.77
2022-09-06T05:20:34.474Z,1.58
2022-09-06T05:23:02.282Z,1.60
2022-09-06T05:25:29.786Z,1.55
2022-09-06T05:27:57.245Z,1.50
2022-09-06T05:30:24.954Z,1.70
2022-09-06T05:32:52.366Z,1.67
2022-09-06T05:35:19.887Z,1.60
2022-09-06T05:37:47.389Z,1.52
2022-09-06T05:40:14.926Z,1.40
2022-09-06T05:42:42.495Z,1.50
2022-09-06T05:45:10.427Z,1.50
2022-09-06T05:47:38.700Z,1.80
2022-09-06T05:50:07.352Z,1.60
2022-09-06T05:52:35.609Z,1.60
2022-09-06T05:55:04.616Z,1.52
2022-09-06T05:57:32.360Z,1.70
2022-09-06T06:00:00.042Z,1.60
2022-09-06T06:02:27.594Z,1.30
2022-09-06T06:04:55.143Z,1.58
2022-09-06T06:07:22.620Z,1.90
2022-09-06T06:09:50.202Z,1.83
2022-09-06T06:12:17.709Z,1.92
2022-09-06T06:14:45.192Z,1.77
2022-09-06T06:17:12.730Z,3.17
2022-09-06T06:19:40.515Z,1.60
2022-09-06T06:22:07.984Z,1.35
2022-09-06T06:24:35.556Z,1.45
2022-09-06T06:27:03.084Z,1.60
2022-09-06T06:29:30.711Z,1.50
2022-09-06T06:31:58.236Z,1.20
2022-09-06T06:34:25.878Z,1.42
2022-09-06T06:36:53.422Z,1.33
2022-09-06T06:39:20.972Z,1.50
2022-09-06T06:41:51.008Z,1.40
2022-09-06T06:44:31.881Z,1.20
2022-09-06T06:47:02.231Z,1.23
2022-09-06T06:49:30.647Z,1.50
2022-09-06T06:51:58.324Z,1.40
2022-09-06T06:54:25.725Z,1.45
2022-09-06T06:56:53.284Z,1.50
2022-09-06T06:59:21.046Z,1.50
2022-09-06T07:01:50.190Z,1.58
2022-09-06T07:04:17.864Z,1.50
2022-09-06T07:12:31.554Z,1.40
2022-09-06T07:14:59.130Z,1.48
2022-09-06T07:17:26.629Z,1.27
2022-09-06T07:22:42.089Z,1.35
2022-09-06T07:25:14.472Z,1.20
2022-09-06T07:30:14.508Z,1.80
2022-09-06T07:32:42.165Z,3.00
2022-09-06T07:35:09.937Z,2.65
2022-09-06T07:37:37.449Z,2.95
2022-09-06T07:40:05.621Z,3.28
2022-09-06T07:42:36.387Z,2.90
2022-09-06T07:45:05.539Z,2.53
2022-09-06T07:53:13.860Z,2.20
2022-09-06T07:55:45.383Z,2.42
2022-09-06T07:58:12.909Z,2.35
2022-09-06T08:00:41.699Z,2.40
2022-09-06T08:03:09.647Z,2.25
2022-09-06T08:11:13.986Z,1.90
2022-09-06T08:13:42.477Z,1.60
2022-09-06T08:16:11.790Z,1.38
2022-09-06T08:18:39.416Z,1.20
2022-09-06T08:21:15.210Z,1.15
2022-09-06T08:23:50.140Z,1.20
2022-09-06T08:26:18.981Z,1.60
2022-09-06T08:28:46.643Z,1.65
2022-09-06T08:31:16.748Z,1.30
2022-09-06T08:33:44.803Z,1.50
2022-09-06T08:36:12.451Z,1.33
2022-09-06T08:38:40.675Z,1.58
2022-09-06T08:41:48.392Z,1.90
2022-09-06T08:44:55.913Z,1.52
2022-09-06T08:47:24.748Z,1.45
2022-09-06T08:50:17.044Z,1.73
2022-09-06T08:53:18.151Z,2.00
2022-09-06T08:55:53.217Z,2.07
2022-09-06T08:58:35.103Z,2.00
2022-09-06T09:01:23.636Z,2.00
2022-09-06T09:03:57.369Z,2.08
2022-09-06T09:06:27.935Z,1.80
2022-09-06T09:09:11.218Z,1.95
2022-09-06T09:11:43.259Z,1.92
2022-09-06T09:14:26.237Z,1.70
2022-09-06T09:16:57.009Z,1.88
2022-09-06T09:19:24.600Z,1.75
2022-09-06T09:21:52.214Z,1.55
2022-09-06T09:24:19.705Z,1.70
2022-09-06T09:26:47.194Z,1.77
2022-09-06T09:29:15.784Z,1.90
2022-09-06T09:31:53.573Z,2.00
2022-09-06T09:34:36.317Z,1.70
2022-09-06T09:40:25.671Z,2.05
2022-09-06T09:42:55.450Z,1.98
2022-09-06T09:45:26.702Z,1.75
2022-09-06T09:47:54.839Z,1.90
2022-09-06T09:50:33.420Z,1.83
2022-09-06T09:53:14.041Z,1.80
2022-09-06T09:55:43.076Z,1.83
2022-09-06T09:58:37.368Z,1.63
2022-09-06T10:01:20.156Z,1.90
2022-09-06T10:09:35.226Z,1.75
2022-09-06T10:12:02.963Z,1.58
2022-09-06T10:14:49.014Z,1.70
2022-09-06T10:17:50.589Z,1.80
2022-09-06T10:20:18.371Z,1.52
2022-09-06T10:23:05.128Z,1.60
2022-09-06T10:25:50.253Z,1.70
2022-09-06T10:28:30.078Z,1.60
2022-09-06T10:31:31.887Z,1.90
2022-09-06T10:34:02.345Z,1.93
2022-09-06T10:36:41.043Z,1.70
2022-09-06T10:39:20.671Z,1.85
2022-09-06T10:41:57.550Z,1.60
2022-09-06T10:45:22.470Z,1.70
2022-09-06T10:48:14.417Z,1.60
2022-09-06T10:51:08.386Z,1.67
2022-09-06T10:53:40.034Z,1.42
2022-09-06T10:56:28.893Z,1.65
2022-09-06T11:02:40.546Z,1.50
2022-09-06T11:05:38.396Z,1.38
2022-09-06T11:11:06.780Z,1.50
2022-09-06T11:13:34.381Z,1.93
2022-09-06T11:16:21.895Z,1.73
2022-09-06T11:19:01.820Z,1.65
2022-09-06T11:21:35.549Z,1.60
2022-09-06T11:24:16.141Z,1.60
2022-09-06T11:27:22.318Z,2.70
2022-09-06T11:29:56.837Z,1.58
2022-09-06T11:32:49.273Z,1.40
2022-09-06T11:35:35.308Z,1.58
2022-09-06T11:38:20.374Z,1.58
2022-09-06T11:40:53.611Z,1.42
2022-09-06T11:43:50.790Z,1.77
2022-09-06T11:46:36.480Z,1.60
2022-09-06T11:49:09.436Z,1.63
2022-09-06T11:51:39.980Z,1.75
2022-09-06T11:54:24.541Z,1.70
2022-09-06T11:57:02.767Z,1.55
2022-09-06T11:59:42.312Z,1.80
2022-09-06T12:02:30.580Z,1.80
2022-09-06T12:05:01.363Z,1.75
2022-09-06T12:07:33.833Z,1.70
2022-09-06T12:10:29.371Z,1.80
2022-09-06T12:12:58.454Z,1.95
2022-09-06T12:15:53.574Z,2.00
2022-09-06T12:18:49.160Z,1.90
2022-09-06T12:21:35.419Z,1.77
2022-09-06T12:24:04.037Z,2.13
2022-09-06T12:27:13.429Z,2.58
2022-09-06T12:30:07.927Z,1.98
2022-09-06T12:32:38.614Z,2.30
2022-09-06T12:38:03.437Z,2.38
2022-09-06T12:40:35.050Z,2.30
2022-09-06T12:43:04.968Z,2.13
2022-09-06T12:45:33.106Z,2.05
2022-09-06T12:48:30.784Z,2.08
2022-09-06T12:51:21.875Z,2.17
2022-09-06T12:53:54.436Z,2.20
2022-09-06T12:56:23.700Z,2.10
2022-09-06T12:58:51.262Z,2.45
2022-09-06T13:01:33.902Z,2.90
2022-09-06T13:04:10.370Z,2.83
2022-09-06T13:06:46.066Z,2.97
2022-09-06T13:09:18.792Z,2.75
2022-09-06T13:11:52.543Z,2.53
2022-09-06T13:16:54.086Z,2.50
2022-09-06T13:19:36.873Z,2.85
2022-09-06T13:22:07.947Z,2.60
2022-09-06T13:24:36.162Z,2.42
2022-09-06T13:27:23.662Z,3.00
2022-09-06T13:30:02.913Z,2.38
2022-09-06T13:32:34.446Z,2.42
2022-09-06T13:35:03.034Z,2.45
2022-09-06T13:37:34.324Z,2.55
2022-09-06T13:40:05.768Z,2.33
2022-09-06T13:42:36.927Z,2.40
2022-09-06T13:45:30.793Z,2.00
2022-09-06T13:48:13.067Z,2.10
2022-09-06T13:50:45.885Z,1.92
2022-09-06T13:53:20.366Z,2.33
2022-09-06T13:55:48.072Z,2.00
2022-09-06T13:58:15.761Z,2.00
2022-09-06T14:00:43.323Z,2.90
2022-09-06T14:03:19.945Z,2.65
2022-09-06T14:05:47.632Z,3.08
2022-09-06T14:08:15.545Z,2.30
2022-09-06T14:10:43.626Z,2.28
2022-09-06T14:13:11.993Z,2.38
2022-09-06T14:15:39.652Z,2.20
2022-09-06T14:18:09.538Z,2.17
2022-09-06T14:20:39.177Z,2.67
2022-09-06T14:23:07.697Z,2.33
2022-09-06T14:25:36.646Z,2.70
2022-09-06T14:28:05.296Z,2.90
2022-09-06T14:30:33.015Z,2.63
2022-09-06T14:33:00.587Z,3.58
2022-09-06T14:35:28.481Z,3.20
2022-09-06T14:37:56.146Z,2.65
2022-09-06T14:40:24.052Z,2.53
2022-09-06T14:42:52.011Z,2.58
2022-09-06T14:45:20.523Z,2.38
2022-09-06T14:47:48.620Z,2.40
2022-09-06T14:50:16.382Z,2.45
2022-09-06T14:52:43.859Z,5.35
2022-09-06T14:55:11.392Z,2.72
2022-09-06T14:57:38.994Z,2.22
2022-09-06T15:00:10.403Z,2.50
2022-09-06T15:02:38.408Z,2.20
2022-09-06T15:05:06.693Z,2.38
2022-09-06T15:07:34.267Z,2.00
2022-09-06T15:10:03.295Z,2.33
2022-09-06T15:12:31.221Z,2.17
2022-09-06T15:14:58.818Z,2.00
2022-09-06T15:17:26.529Z,2.08
2022-09-06T15:19:54.630Z,2.13
2022-09-06T15:22:23.189Z,2.10
2022-09-06T15:24:50.713Z,3.08
2022-09-06T15:27:19.153Z,2.70
2022-09-06T15:29:46.605Z,3.08
2022-09-06T15:32:14.204Z,2.67
2022-09-06T15:34:41.727Z,3.00
2022-09-06T15:37:09.197Z,2.80
2022-09-06T15:39:36.902Z,2.70
2022-09-06T15:42:04.687Z,3.17
2022-09-06T15:44:32.268Z,3.00
2022-09-06T15:46:59.830Z,3.20
2022-09-06T15:49:32.132Z,2.28
2022-09-06T15:52:01.720Z,2.60
2022-09-06T15:54:48.552Z,2.58
2022-09-06T15:57:17.035Z,2.22
2022-09-06T15:59:45.312Z,2.20
2022-09-06T16:02:13.314Z,2.10
2022-09-06T16:04:40.988Z,2.45
2022-09-06T16:07:09.343Z,2.47
2022-09-06T16:09:36.850Z,2.42
2022-09-06T16:12:04.792Z,2.20
2022-09-06T16:14:32.611Z,2.17
2022-09-06T16:17:00.253Z,2.45
2022-09-06T16:19:27.947Z,2.63
2022-09-06T16:21:55.500Z,3.38
2022-09-06T16:24:23.628Z,3.65
2022-09-06T16:26:51.228Z,4.22
2022-09-06T16:29:20.623Z,5.18
2022-09-06T16:31:48.514Z,4.47
2022-09-06T16:34:16.459Z,4.75
2022-09-06T16:36:43.999Z,5.00
2022-09-06T16:39:11.695Z,4.07
2022-09-06T16:41:43.597Z,4.00
2022-09-06T16:44:16.997Z,4.50
2022-09-06T16:49:14.164Z,3.20
2022-09-06T16:51:41.727Z,3.70
2022-09-06T16:54:09.831Z,3.60
2022-09-06T16:56:37.545Z,3.90
2022-09-06T16:59:07.655Z,3.60
2022-09-06T17:01:36.619Z,3.53
2022-09-06T17:04:04.949Z,3.47
2022-09-06T17:06:39.224Z,3.40
2022-09-06T17:09:06.738Z,3.55
2022-09-06T17:11:34.251Z,3.70
2022-09-06T17:14:01.797Z,3.50
2022-09-06T17:16:47.702Z,4.30
2022-09-06T17:19:15.389Z,4.18
2022-09-06T17:21:43.995Z,3.33
2022-09-06T17:24:12.220Z,3.83
2022-09-06T17:26:40.073Z,3.20
2022-09-06T17:29:08.630Z,3.33
2022-09-06T17:31:37.161Z,3.25
2022-09-06T17:34:05.376Z,3.25
2022-09-06T17:36:34.708Z,3.70
2022-09-06T17:39:05.595Z,3.15
2022-09-06T17:41:38.053Z,3.60
2022-09-06T17:44:07.995Z,3.28
2022-09-06T17:46:35.609Z,3.65
2022-09-06T17:49:05.267Z,3.55
2022-09-06T17:51:33.670Z,3.40
2022-09-06T17:54:01.559Z,3.40
2022-09-06T17:56:30.540Z,3.85
2022-09-06T17:59:10.934Z,3.60
2022-09-06T18:01:40.646Z,3.60
2022-09-06T18:04:10.496Z,3.17
2022-09-06T18:06:41.491Z,3.30
2022-09-06T18:09:12.199Z,3.42
2022-09-06T18:11:40.920Z,3.40
2022-09-06T18:14:16.330Z,3.42
2022-09-06T18:16:49.400Z,3.28
2022-09-06T18:19:18.332Z,3.10
2022-09-06T18:21:46.545Z,3.42
2022-09-06T18:24:14.446Z,3.15
2022-09-06T18:26:43.322Z,3.38
2022-09-06T18:29:13.374Z,2.88
2022-09-06T18:31:41.866Z,2.40
2022-09-06T18:34:09.555Z,2.30
2022-09-06T18:36:38.409Z,2.00
2022-09-06T18:39:06.564Z,2.00
2022-09-06T18:41:53.361Z,1.90
2022-09-06T18:44:21.036Z,1.80
2022-09-06T18:46:49.190Z,1.70
2022-09-06T18:49:17.721Z,1.40
2022-09-06T18:51:45.878Z,1.45
2022-09-06T18:54:14.106Z,1.60
2022-09-06T18:56:42.473Z,1.40
2022-09-06T18:59:11.046Z,1.30
2022-09-06T19:01:38.978Z,1.20
2022-09-06T19:04:07.845Z,1.38
2022-09-06T19:06:36.996Z,1.33
2022-09-06T19:09:10.913Z,1.42
2022-09-06T19:11:39.897Z,1.50
2022-09-06T19:14:07.358Z,1.40
2022-09-06T19:16:34.997Z,1.35
2022-09-06T19:19:07.822Z,1.20
2022-09-06T19:21:40.814Z,1.40
2022-09-06T19:24:10.842Z,1.50
2022-09-06T19:26:41.798Z,1.42
2022-09-06T19:29:13.685Z,1.45
2022-09-06T19:31:41.563Z,1.40
2022-09-06T19:34:09.218Z,1.30
2022-09-06T19:36:36.807Z,1.23
2022-09-06T19:39:07.375Z,1.50
2022-09-06T19:41:38.331Z,1.50
2022-09-06T19:44:08.872Z,1.30
2022-09-06T19:46:37.831Z,1.50
2022-09-06T19:49:08.414Z,1.30
2022-09-06T19:51:37.326Z,1.50
2022-09-06T19:54:05.251Z,1.50
2022-09-06T19:56:35.284Z,1.60
2022-09-06T19:59:06.049Z,1.40
2022-09-06T20:01:35.558Z,1.88
2022-09-06T20:04:05.343Z,1.70
2022-09-06T20:06:33.939Z,1.50
2022-09-06T20:09:02.829Z,1.70
2022-09-06T20:11:32.295Z,1.70
2022-09-06T20:14:00.747Z,1.75
2022-09-06T20:16:28.839Z,1.65
2022-09-06T20:18:57.207Z,1.55
2022-09-06T20:21:25.187Z,1.73
2022-09-06T20:23:54.471Z,1.85
2022-09-06T20:26:24.117Z,1.83
2022-09-06T20:28:59.918Z,2.00
2022-09-06T20:31:29.452Z,1.88
2022-09-06T20:34:00.174Z,1.88
2022-09-06T20:36:27.935Z,2.10
2022-09-06T20:38:55.597Z,2.15
2022-09-06T20:41:24.919Z,2.03
2022-09-06T20:43:56.615Z,2.20
2022-09-06T20:46:29.483Z,2.42
2022-09-06T20:49:00.083Z,2.33
2022-09-06T20:51:27.657Z,2.00
2022-09-06T20:53:57.776Z,2.38
2022-09-06T20:56:28.373Z,2.20
2022-09-06T20:59:01.088Z,2.08
2022-09-06T21:01:33.745Z,1.90
2022-09-06T21:04:02.648Z,2.17
2022-09-06T21:06:34.005Z,1.98
2022-09-06T21:09:05.886Z,2.15
2022-09-06T21:11:33.622Z,1.90
2022-09-06T21:14:01.466Z,2.10
2022-09-06T21:16:30.610Z,1.90
2022-09-06T21:19:01.019Z,2.13
2022-09-06T21:21:30.319Z,2.08
2022-09-06T21:23:58.463Z,2.10
2022-09-06T21:26:26.098Z,2.20
2022-09-06T21:28:53.822Z,1.92
2022-09-06T21:31:24.363Z,2.10
2022-09-06T21:33:55.303Z,1.80
2022-09-06T21:36:30.272Z,2.30
2022-09-06T21:39:00.219Z,2.65
2022-09-06T21:41:28.967Z,2.42
2022-09-06T21:44:00.029Z,2.33
2022-09-06T21:46:33.264Z,2.45
2022-09-06T21:49:10.415Z,2.40
2022-09-06T21:51:38.983Z,2.63
2022-09-06T21:54:07.238Z,2.92
2022-09-06T21:56:36.330Z,2.90
2022-09-06T21:59:04.990Z,2.72
2022-09-06T22:01:35.108Z,2.65
2022-09-06T22:04:03.748Z,2.63
2022-09-06T22:06:33.659Z,2.47
2022-09-06T22:09:04.950Z,2.80
2022-09-06T22:11:34.516Z,2.78
2022-09-06T22:14:05.395Z,2.70
2022-09-06T22:16:35.014Z,2.72
2022-09-06T22:19:05.076Z,2.50
2022-09-06T22:21:33.115Z,2.50
2022-09-06T22:24:04.107Z,2.45
2022-09-06T22:26:33.674Z,2.50
2022-09-06T22:29:04.044Z,2.13
2022-09-06T22:31:33.299Z,2.40
2022-09-06T22:34:01.495Z,2.58
2022-09-06T22:36:29.389Z,2.30
2022-09-06T22:38:57.948Z,2.55
2022-09-06T22:41:27.934Z,2.45
2022-09-06T22:43:55.719Z,2.47
2022-09-06T22:46:23.458Z,2.22
2022-09-06T22:48:51.140Z,2.35
2022-09-06T22:51:18.803Z,2.92
2022-09-06T22:53:46.301Z,2.38
2022-09-06T22:56:13.800Z,1.98
2022-09-06T22:58:41.302Z,2.63
2022-09-06T23:01:13.802Z,2.67
2022-09-06T23:03:42.543Z,2.75
2022-09-06T23:06:10.689Z,2.83
2022-09-06T23:08:39.923Z,3.00
2022-09-06T23:11:10.439Z,2.90
2022-09-06T23:13:38.496Z,2.60
2022-09-06T23:16:08.433Z,2.80
2022-09-06T23:18:36.018Z,3.00
2022-09-06T23:21:05.974Z,3.28
2022-09-06T23:23:34.086Z,3.28
2022-09-06T23:26:06.497Z,2.83
2022-09-06T23:28:35.099Z,3.10
2022-09-06T23:31:07.854Z,3.00
2022-09-06T23:33:36.532Z,3.17
2022-09-06T23:36:09.465Z,3.03
2022-09-06T23:38:38.587Z,3.30
2022-09-06T23:41:06.749Z,3.22
2022-09-06T23:43:34.308Z,3.30
2022-09-06T23:46:02.291Z,3.30
2022-09-06T23:48:30.249Z,3.13
2022-09-06T23:50:57.876Z,3.20
2022-09-06T23:53:25.454Z,3.08
2022-09-06T23:55:53.348Z,2.90
2022-09-06T23:58:21.201Z,2.95
